Time;durP1;ratioP1;P1;durP2;ratioP2;P2;SDS_P1;SDS_P2;PMS_P1;PMS_P2;Temp;Humidity;BMP_temperature;BMP_pressure;BME280_temperature;BME280_humidity;BME280_pressure;Samples;Min_cycle;Max_cycle;Signal;HPM_P1;HPM_P2
2023/06/15 00:00:58;;;;;;;1999.90;999.90;;;21.40;86.20;;;;;;5051401;28;20055;-70
2023/06/15 00:03:25;;;;;;;1999.90;999.90;;;21.70;84.40;;;;;;5048103;28;20028;-70
2023/06/15 00:05:53;;;;;;;1999.90;999.90;;;21.70;84.40;;;;;;5057310;28;20480;-70
2023/06/15 00:08:21;;;;;;;1999.90;999.90;;;21.90;83.80;;;;;;5059461;28;20040;-71
2023/06/15 00:10:51;;;;;;;1999.90;999.90;;;22.00;83.70;;;;;;5046677;28;20039;-74
2023/06/15 00:13:19;;;;;;;1999.90;999.90;;;22.40;83.60;;;;;;5057398;28;20075;-73
2023/06/15 00:15:46;;;;;;;1999.90;999.90;;;22.50;84.30;;;;;;5055825;28;20036;-71
2023/06/15 00:18:14;;;;;;;1999.90;999.90;;;22.90;83.10;;;;;;5052543;28;20033;-70
2023/06/15 00:20:41;;;;;;;1999.90;999.90;;;23.30;81.90;;;;;;5051545;28;20109;-70
2023/06/15 00:23:09;;;;;;;1999.90;999.90;;;23.40;80.40;;;;;;5064610;28;20049;-71
2023/06/15 00:25:37;;;;;;;1999.90;999.90;;;23.40;80.40;;;;;;5049134;28;20036;-70
2023/06/15 00:28:04;;;;;;;1999.90;999.90;;;23.50;79.10;;;;;;5055110;28;20037;-71
2023/06/15 00:30:32;;;;;;;1999.90;999.90;;;23.40;78.60;;;;;;5051705;28;20052;-70
2023/06/15 00:32:59;;;;;;;1999.90;999.90;;;23.30;79.50;;;;;;5051623;28;20031;-72
2023/06/15 00:35:27;;;;;;;1999.90;999.90;;;23.50;79.50;;;;;;5053480;28;20021;-71
2023/06/15 00:37:54;;;;;;;1999.90;999.90;;;23.70;77.80;;;;;;5050007;28;20028;-71
2023/06/15 00:40:23;;;;;;;1999.90;999.90;;;23.90;77.30;;;;;;5056625;28;20032;-71
2023/06/15 00:42:50;;;;;;;1999.90;999.90;;;23.50;78.80;;;;;;5056063;28;20024;-71
2023/06/15 00:45:18;;;;;;;1999.90;999.90;;;23.80;79.10;;;;;;5056826;28;20025;-71
2023/06/15 00:47:46;;;;;;;1999.90;999.90;;;24.10;78.10;;;;;;5059230;28;20036;-71
2023/06/15 00:50:14;;;;;;;1999.90;999.90;;;24.00;77.10;;;;;;5053145;28;20033;-71
2023/06/15 00:52:42;;;;;;;1999.90;999.90;;;24.00;77.70;;;;;;5056590;28;20025;-71
2023/06/15 00:55:13;;;;;;;1999.90;999.90;;;24.10;77.60;;;;;;5055092;28;20031;-71
2023/06/15 00:57:44;;;;;;;1999.90;999.90;;;24.10;77.70;;;;;;5046846;28;20021;-71
2023/06/15 01:00:16;;;;;;;1999.90;999.90;;;23.90;77.40;;;;;;5046997;28;20112;-71
2023/06/15 01:02:44;;;;;;;1999.90;999.90;;;24.10;77.50;;;;;;5054679;28;20075;-71
2023/06/15 01:05:16;;;;;;;1999.90;999.90;;;24.50;77.10;;;;;;5051329;28;20021;-69
2023/06/15 01:07:48;;;;;;;1999.90;999.90;;;25.00;76.30;;;;;;5055668;28;20429;-72
2023/06/15 01:10:18;;;;;;;1999.90;999.90;;;25.50;74.20;;;;;;5054178;28;20099;-69
2023/06/15 01:12:50;;;;;;;1999.90;999.90;;;25.90;73.80;;;;;;5060109;28;20372;-70
2023/06/15 01:15:18;;;;;;;1999.90;999.90;;;25.90;73.20;;;;;;5050984;28;20467;-71
2023/06/15 01:17:47;;;;;;;1999.90;999.90;;;25.40;73.60;;;;;;5059722;28;20017;-70
2023/06/15 01:20:24;;;;;;;1999.90;999.90;;;25.40;73.50;;;;;;5055645;28;20122;-71
2023/06/15 01:22:59;;;;;;;1999.90;999.90;;;25.60;74.20;;;;;;5057504;28;20028;-71
2023/06/15 01:25:45;;;;;;;1999.90;999.90;;;26.30;73.30;;;;;;5055846;28;20420;-71
2023/06/15 01:28:22;;;;;;;1999.90;999.90;;;26.50;72.70;;;;;;5056289;28;20063;-70
2023/06/15 01:30:53;;;;;;;1999.90;999.90;;;26.60;73.50;;;;;;5050575;28;20391;-69
2023/06/15 01:33:22;;;;;;;1999.90;999.90;;;26.80;71.90;;;;;;5057037;28;20025;-70
2023/06/15 01:35:49;;;;;;;1999.90;999.90;;;26.80;71.50;;;;;;5054289;28;20033;-70
2023/06/15 01:38:21;;;;;;;1999.90;999.90;;;26.90;71.20;;;;;;5051938;28;20033;-70
2023/06/15 01:40:51;;;;;;;1999.90;999.90;;;26.90;70.90;;;;;;5052344;28;20024;-70
2023/06/15 01:43:23;;;;;;;1999.90;999.90;;;27.00;71.80;;;;;;5048123;28;20025;-72
2023/06/15 01:45:51;;;;;;;1999.90;999.90;;;27.20;71.20;;;;;;5049050;28;20029;-70
2023/06/15 01:48:20;;;;;;;1999.90;999.90;;;27.50;71.40;;;;;;5055511;28;20029;-71
2023/06/15 01:50:49;;;;;;;1999.90;999.90;;;27.60;71.50;;;;;;5048719;28;20037;-70
2023/06/15 01:53:17;;;;;;;1999.90;999.90;;;27.60;71.90;;;;;;5052678;28;20083;-70
2023/06/15 01:55:44;;;;;;;1999.90;999.90;;;27.80;70.60;;;;;;5055505;28;20072;-71
2023/06/15 01:58:16;;;;;;;1999.90;999.90;;;27.80;70.90;;;;;;5049046;28;20025;-72
2023/06/15 02:00:44;;;;;;;1999.90;999.90;;;27.90;70.60;;;;;;5048481;28;20036;-71
2023/06/15 02:03:12;;;;;;;1999.90;999.90;;;27.80;71.10;;;;;;5039027;28;20045;-70
2023/06/15 02:05:40;;;;;;;1999.90;999.90;;;27.90;70.90;;;;;;5044643;28;20113;-69
2023/06/15 02:08:09;;;;;;;1999.90;999.90;;;28.10;70.10;;;;;;5051187;28;20021;-69
2023/06/15 02:10:36;;;;;;;1999.90;999.90;;;28.10;68.30;;;;;;5045476;28;20037;-70
2023/06/15 02:13:04;;;;;;;1999.90;999.90;;;28.00;68.40;;;;;;5054831;28;20039;-69
2023/06/15 02:15:31;;;;;;;1999.90;999.90;;;27.90;68.30;;;;;;5047820;28;20036;-71
2023/06/15 02:18:02;;;;;;;1999.90;999.90;;;27.80;68.50;;;;;;5041951;28;20055;-70
2023/06/15 02:20:31;;;;;;;1999.90;999.90;;;27.50;67.60;;;;;;5047813;28;20041;-72
2023/06/15 02:22:59;;;;;;;1999.90;999.90;;;27.30;67.70;;;;;;5044998;28;20041;-72
2023/06/15 02:25:30;;;;;;;1999.90;999.90;;;27.30;67.70;;;;;;5048814;28;20532;-74
2023/06/15 02:27:57;;;;;;;1999.90;999.90;;;27.30;67.40;;;;;;5051748;28;20484;-72
2023/06/15 02:30:28;;;;;;;1999.90;999.90;;;27.30;67.70;;;;;;5048178;28;20181;-73
2023/06/15 02:33:00;;;;;;;1999.90;999.90;;;27.10;68.20;;;;;;5050747;28;20066;-72
2023/06/15 02:35:27;;;;;;;1999.90;999.90;;;26.80;67.50;;;;;;5045380;28;20025;-72
2023/06/15 02:37:55;;;;;;;1999.90;999.90;;;26.30;68.50;;;;;;5053952;28;20029;-72
2023/06/15 02:40:22;;;;;;;1999.90;999.90;;;26.10;68.70;;;;;;5047617;28;20562;-71
2023/06/15 02:42:50;;;;;;;1999.90;999.90;;;26.00;68.90;;;;;;5046358;28;20021;-71
2023/06/15 02:45:17;;;;;;;1999.90;999.90;;;25.80;69.20;;;;;;5044135;28;20032;-72
2023/06/15 02:47:45;;;;;;;1999.90;999.90;;;25.70;68.90;;;;;;5048890;28;20063;-72
2023/06/15 02:50:13;;;;;;;1999.90;999.90;;;25.60;70.00;;;;;;5045393;28;20045;-71
2023/06/15 02:52:40;;;;;;;1999.90;999.90;;;25.60;69.40;;;;;;5055082;28;20112;-71
2023/06/15 02:55:08;;;;;;;1999.90;999.90;;;25.50;69.80;;;;;;5047079;28;20401;-73
2023/06/15 02:57:36;;;;;;;1999.90;999.90;;;25.20;69.80;;;;;;5054936;28;20029;-71
2023/06/15 03:00:05;;;;;;;1999.90;999.90;;;24.90;70.30;;;;;;5052832;28;20504;-71
2023/06/15 03:02:32;;;;;;;1999.90;999.90;;;24.60;70.20;;;;;;5056826;28;20033;-70
2023/06/15 03:05:00;;;;;;;1999.90;999.90;;;24.40;70.60;;;;;;5056034;28;20510;-74
2023/06/15 03:07:30;;;;;;;1999.90;999.90;;;24.00;70.40;;;;;;5062767;28;20087;-72
2023/06/15 03:09:57;;;;;;;1999.90;999.90;;;23.70;71.50;;;;;;5060624;28;20044;-70
2023/06/15 03:12:25;;;;;;;1999.90;999.90;;;23.50;71.20;;;;;;5054879;28;20029;-71
2023/06/15 03:14:52;;;;;;;1999.90;999.90;;;23.30;71.80;;;;;;5052184;28;20024;-69
2023/06/15 03:17:21;;;;;;;1999.90;999.90;;;23.00;71.90;;;;;;5047804;28;20029;-71
2023/06/15 03:19:48;;;;;;;1999.90;999.90;;;22.80;72.60;;;;;;5054663;28;20848;-71
2023/06/15 03:22:17;;;;;;;1999.90;999.90;;;22.60;73.30;;;;;;5045307;28;20045;-72
2023/06/15 03:24:45;;;;;;;1999.90;999.90;;;22.30;73.50;;;;;;5046791;28;20020;-69
2023/06/15 03:27:13;;;;;;;1999.90;999.90;;;22.20;74.20;;;;;;5050553;28;20107;-70
2023/06/15 03:29:41;;;;;;;1999.90;999.90;;;22.00;74.20;;;;;;5056138;28;20029;-71
2023/06/15 03:32:09;;;;;;;1999.90;999.90;;;21.60;74.40;;;;;;5054829;28;20025;-71
2023/06/15 03:34:37;;;;;;;1999.90;999.90;;;21.30;75.50;;;;;;5058122;28;20091;-73
2023/06/15 03:37:07;;;;;;;1999.90;999.90;;;21.00;76.00;;;;;;5056130;28;20033;-71
2023/06/15 03:39:35;;;;;;;1999.90;999.90;;;20.70;75.90;;;;;;5054649;28;20037;-71
2023/06/15 03:42:02;;;;;;;1999.90;999.90;;;20.20;76.30;;;;;;5058845;28;20053;-71
2023/06/15 03:44:29;;;;;;;1999.90;999.90;;;20.00;77.30;;;;;;5056973;28;20514;-69
2023/06/15 03:46:57;;;;;;;1999.90;999.90;;;19.70;77.20;;;;;;5044799;28;20861;-69
2023/06/15 03:49:24;;;;;;;1999.90;999.90;;;19.50;78.00;;;;;;5057958;28;20387;-68
2023/06/15 03:51:51;;;;;;;1999.90;999.90;;;19.40;77.60;;;;;;5055590;28;20025;-69
2023/06/15 03:54:19;;;;;;;1999.90;999.90;;;19.20;78.50;;;;;;5057979;28;20147;-68
2023/06/15 03:56:46;;;;;;;1999.90;999.90;;;19.10;78.80;;;;;;5057483;28;20025;-68
2023/06/15 03:59:13;;;;;;;1999.90;999.90;;;19.00;79.10;;;;;;5058316;28;20498;-69
2023/06/15 04:01:42;;;;;;;1999.90;999.90;;;18.90;79.70;;;;;;5056496;28;20028;-68
2023/06/15 04:04:12;;;;;;;1999.90;999.90;;;18.90;79.90;;;;;;5055007;28;20454;-72
2023/06/15 04:06:45;;;;;;;1999.90;999.90;;;18.80;79.90;;;;;;5061053;28;20034;-70
2023/06/15 04:09:14;;;;;;;1999.90;999.90;;;18.80;80.10;;;;;;5055492;28;20037;-69
2023/06/15 04:11:41;;;;;;;1999.90;999.90;;;18.70;80.30;;;;;;5054020;28;20472;-69
2023/06/15 04:14:09;;;;;;;1999.90;999.90;;;18.70;80.60;;;;;;5051535;28;20385;-70
2023/06/15 04:16:36;;;;;;;1999.90;999.90;;;18.60;80.90;;;;;;5051924;28;20029;-69
2023/06/15 04:19:03;;;;;;;1999.90;999.90;;;18.50;80.90;;;;;;5048349;28;20039;-69
2023/06/15 04:21:31;;;;;;;1999.90;999.90;;;18.40;80.70;;;;;;5051849;28;20079;-68
2023/06/15 04:23:58;;;;;;;1999.90;999.90;;;18.30;80.60;;;;;;5057722;28;20495;-72
2023/06/15 04:26:26;;;;;;;1999.90;999.90;;;18.30;81.10;;;;;;5051200;28;20033;-68
2023/06/15 04:28:57;;;;;;;1999.90;999.90;;;18.20;81.40;;;;;;5051147;28;20507;-68
2023/06/15 04:31:25;;;;;;;1999.90;999.90;;;18.10;81.90;;;;;;5039849;28;20037;-73
2023/06/15 04:33:58;;;;;;;1999.90;999.90;;;18.10;81.70;;;;;;5051412;28;20033;-67
2023/06/15 04:36:26;;;;;;;1999.90;999.90;;;18.00;82.00;;;;;;5047159;28;20044;-67
2023/06/15 04:38:53;;;;;;;1999.90;999.90;;;17.90;82.10;;;;;;5054713;28;20040;-68
2023/06/15 04:41:23;;;;;;;1999.90;999.90;;;17.90;82.20;;;;;;5042593;28;20061;-67
2023/06/15 04:43:52;;;;;;;1999.90;999.90;;;17.80;82.00;;;;;;5051943;28;20032;-72
2023/06/15 04:46:19;;;;;;;1999.90;999.90;;;17.70;82.60;;;;;;5050845;28;20024;-71
2023/06/15 04:48:47;;;;;;;1999.90;999.90;;;17.70;82.40;;;;;;5057468;28;20119;-69
2023/06/15 04:51:15;;;;;;;1999.90;999.90;;;17.70;83.30;;;;;;5051025;28;20534;-70
2023/06/15 04:53:45;;;;;;;1999.90;999.90;;;17.70;83.60;;;;;;5052776;28;20024;-69
2023/06/15 04:56:13;;;;;;;1999.90;999.90;;;17.60;83.40;;;;;;5047397;28;20108;-70
2023/06/15 04:58:40;;;;;;;1999.90;999.90;;;17.60;83.10;;;;;;5048033;28;20065;-71
2023/06/15 05:01:08;;;;;;;1999.90;999.90;;;17.60;83.50;;;;;;5048470;28;20753;-68
2023/06/15 05:03:35;;;;;;;1999.90;999.90;;;17.60;83.60;;;;;;5054220;28;20049;-69
2023/06/15 05:06:03;;;;;;;1999.90;999.90;;;17.60;83.80;;;;;;5045787;28;20527;-67
2023/06/15 05:08:32;;;;;;;1999.90;999.90;;;17.60;83.20;;;;;;5054207;28;20119;-67
2023/06/15 05:11:00;;;;;;;1999.90;999.90;;;17.60;83.40;;;;;;5056426;28;20033;-68
2023/06/15 05:13:27;;;;;;;1999.90;999.90;;;17.50;83.70;;;;;;5052702;28;20488;-68
2023/06/15 05:15:55;;;;;;;1999.90;999.90;;;17.50;83.80;;;;;;5050634;28;20451;-68
2023/06/15 05:18:30;;;;;;;1999.90;999.90;;;17.50;83.60;;;;;;5051541;28;20096;-68
2023/06/15 05:20:57;;;;;;;1999.90;999.90;;;17.50;83.50;;;;;;5050804;28;20117;-67
2023/06/15 05:23:24;;;;;;;1999.90;999.90;;;17.40;83.80;;;;;;5047734;28;20348;-67
2023/06/15 05:25:52;;;;;;;1999.90;999.90;;;17.40;84.20;;;;;;5049467;28;20021;-67
2023/06/15 05:28:20;;;;;;;1999.90;999.90;;;17.30;84.00;;;;;;5054818;28;20033;-68
2023/06/15 05:30:47;;;;;;;1999.90;999.90;;;17.30;84.20;;;;;;5051331;28;20078;-67
2023/06/15 05:33:14;;;;;;;1999.90;999.90;;;17.20;84.00;;;;;;5047221;28;20036;-68
2023/06/15 05:35:42;;;;;;;1999.90;999.90;;;17.20;84.00;;;;;;5051231;28;20028;-68
2023/06/15 05:38:09;;;;;;;1999.90;999.90;;;17.20;84.10;;;;;;5056760;28;20092;-70
2023/06/15 05:40:36;;;;;;;1999.90;999.90;;;17.10;84.70;;;;;;5044521;28;20030;-68
2023/06/15 05:43:05;;;;;;;1999.90;999.90;;;17.10;85.00;;;;;;5058870;28;20119;-69
2023/06/15 05:45:32;;;;;;;1999.90;999.90;;;17.10;85.40;;;;;;5052026;28;20037;-68
2023/06/15 05:47:59;;;;;;;1999.90;999.90;;;17.00;85.40;;;;;;5057286;28;20028;-68
2023/06/15 05:50:27;;;;;;;1999.90;999.90;;;17.00;85.50;;;;;;5048145;28;20471;-71
2023/06/15 05:52:54;;;;;;;1999.90;999.90;;;17.00;85.40;;;;;;5047855;28;20021;-69
2023/06/15 05:55:23;;;;;;;1999.90;999.90;;;17.00;85.50;;;;;;5043024;28;20052;-68
2023/06/15 05:57:50;;;;;;;1999.90;999.90;;;16.90;85.50;;;;;;5062121;28;20032;-67
2023/06/15 06:00:25;;;;;;;1999.90;999.90;;;16.90;85.70;;;;;;5048449;28;20029;-68
2023/06/15 06:02:53;;;;;;;1999.90;999.90;;;16.90;86.00;;;;;;5051449;28;20468;-67
2023/06/15 06:05:20;;;;;;;1999.90;999.90;;;17.00;85.80;;;;;;5048787;28;20029;-68
2023/06/15 06:07:48;;;;;;;1999.90;999.90;;;17.10;85.10;;;;;;5050429;28;20150;-70
2023/06/15 06:10:19;;;;;;;1999.90;999.90;;;17.10;85.80;;;;;;5049115;28;20494;-72
2023/06/15 06:12:57;;;;;;;;;;;;;;;;;;;;;
2023/06/15 06:15:25;;;;;;;1999.90;999.90;;;17.30;85.60;;;;;;5054611;28;20504;-69
2023/06/15 06:17:53;;;;;;;1999.90;999.90;;;17.30;85.80;;;;;;5049931;28;20037;-67
2023/06/15 06:20:21;;;;;;;1999.90;999.90;;;17.30;86.00;;;;;;5052642;28;20192;-67
2023/06/15 06:22:48;;;;;;;1999.90;999.90;;;17.30;86.20;;;;;;5051775;28;20491;-71
2023/06/15 06:25:16;;;;;;;1999.90;999.90;;;17.30;85.80;;;;;;5050141;28;20124;-70
2023/06/15 06:27:43;;;;;;;1999.90;999.90;;;17.20;85.90;;;;;;5054639;28;20091;-71
2023/06/15 06:30:10;;;;;;;1999.90;999.90;;;17.20;86.20;;;;;;5057084;28;20120;-74
2023/06/15 06:32:38;;;;;;;1999.90;999.90;;;17.00;86.30;;;;;;5060194;28;20104;-67
2023/06/15 06:35:06;;;;;;;1999.90;999.90;;;16.90;86.70;;;;;;5054099;28;20051;-70
2023/06/15 06:37:34;;;;;;;1999.90;999.90;;;16.70;86.80;;;;;;5054887;28;20479;-72
2023/06/15 06:40:03;;;;;;;1999.90;999.90;;;16.50;87.30;;;;;;5049425;28;20025;-72
2023/06/15 06:42:30;;;;;;;1999.90;999.90;;;16.30;87.60;;;;;;5056129;28;20555;-68
2023/06/15 06:44:58;;;;;;;1999.90;999.90;;;16.10;88.10;;;;;;5053240;28;20032;-68
2023/06/15 06:47:25;;;;;;;1999.90;999.90;;;15.90;88.60;;;;;;5056050;28;20028;-68
2023/06/15 06:49:53;;;;;;;1999.90;999.90;;;15.80;89.00;;;;;;5055019;28;20082;-66
2023/06/15 06:52:20;;;;;;;1999.90;999.90;;;15.60;89.50;;;;;;5050299;28;20032;-66
2023/06/15 06:54:47;;;;;;;1999.90;999.90;;;15.40;90.00;;;;;;5071786;28;20033;-71
2023/06/15 06:57:14;;;;;;;1999.90;999.90;;;15.30;90.20;;;;;;5045934;28;20025;-72
2023/06/15 06:59:42;;;;;;;1999.90;999.90;;;15.20;90.50;;;;;;5049814;28;20091;-71
2023/06/15 07:02:09;;;;;;;1999.90;999.90;;;15.10;90.60;;;;;;5052457;28;20045;-73
2023/06/15 07:04:36;;;;;;;1999.90;999.90;;;15.00;90.90;;;;;;5060287;28;20697;-69
2023/06/15 07:07:04;;;;;;;1999.90;999.90;;;14.90;91.00;;;;;;5049527;28;20033;-67
2023/06/15 07:09:31;;;;;;;1999.90;999.90;;;14.80;91.20;;;;;;5056379;28;20064;-68
2023/06/15 07:12:00;;;;;;;1999.90;999.90;;;14.70;91.30;;;;;;5048522;28;20064;-68
2023/06/15 07:14:27;;;;;;;1999.90;999.90;;;14.60;91.20;;;;;;5053388;28;20063;-67
2023/06/15 07:16:54;;;;;;;1999.90;999.90;;;14.50;91.20;;;;;;5056376;28;20491;-68
2023/06/15 07:19:22;;;;;;;1999.90;999.90;;;14.50;91.20;;;;;;5058835;28;20035;-68
2023/06/15 07:21:49;;;;;;;1999.90;999.90;;;14.50;91.10;;;;;;5051739;28;20116;-67
2023/06/15 07:24:17;;;;;;;1999.90;999.90;;;14.40;91.40;;;;;;5059150;28;20535;-70
2023/06/15 07:26:44;;;;;;;1999.90;999.90;;;14.40;91.10;;;;;;5047513;28;20029;-69
2023/06/15 07:29:14;;;;;;;1999.90;999.90;;;14.30;91.30;;;;;;5053284;28;20045;-67
2023/06/15 07:31:42;;;;;;;1999.90;999.90;;;14.20;91.30;;;;;;5048044;28;20028;-69
2023/06/15 07:34:09;;;;;;;1999.90;999.90;;;14.20;91.50;;;;;;5055863;28;20073;-71
2023/06/15 07:36:37;;;;;;;1999.90;999.90;;;14.00;91.60;;;;;;5048579;28;20048;-72
2023/06/15 07:39:05;;;;;;;1999.90;999.90;;;13.90;91.70;;;;;;5052899;28;20025;-72
2023/06/15 07:41:32;;;;;;;1999.90;999.90;;;13.90;91.90;;;;;;5050949;28;20029;-72
2023/06/15 07:44:01;;;;;;;1999.90;999.90;;;13.90;91.90;;;;;;5054154;28;20033;-69
2023/06/15 07:46:28;;;;;;;1999.90;999.90;;;13.80;92.10;;;;;;5040409;28;20082;-71
2023/06/15 07:48:56;;;;;;;1999.90;999.90;;;13.80;92.00;;;;;;5055498;28;20045;-70
2023/06/15 07:51:23;;;;;;;1999.90;999.90;;;13.70;92.20;;;;;;5047472;28;20047;-68
2023/06/15 07:53:50;;;;;;;1999.90;999.90;;;13.70;92.30;;;;;;5050882;28;20029;-68
2023/06/15 07:56:17;;;;;;;1999.90;999.90;;;13.60;92.30;;;;;;5059170;28;20029;-69
2023/06/15 07:58:45;;;;;;;1999.90;999.90;;;13.60;92.50;;;;;;5062302;28;20071;-71
2023/06/15 08:01:12;;;;;;;1999.90;999.90;;;13.60;92.60;;;;;;5051009;28;20024;-71
2023/06/15 08:03:40;;;;;;;1999.90;999.90;;;13.50;92.60;;;;;;5049080;28;20041;-70
2023/06/15 08:06:08;;;;;;;1999.90;999.90;;;13.40;92.70;;;;;;5047631;28;20020;-68
2023/06/15 08:08:35;;;;;;;1999.90;999.90;;;13.40;92.90;;;;;;5057475;28;20029;-71
2023/06/15 08:11:05;;;;;;;1999.90;999.90;;;13.30;92.90;;;;;;5056396;28;20518;-69
2023/06/15 08:13:32;;;;;;;1999.90;999.90;;;13.30;93.10;;;;;;5062263;28;20028;-70
2023/06/15 08:16:00;;;;;;;1999.90;999.90;;;13.30;93.10;;;;;;5056505;28;20116;-71
2023/06/15 08:18:29;;;;;;;1999.90;999.90;;;13.30;93.20;;;;;;5052480;28;20037;-71
2023/06/15 08:20:57;;;;;;;1999.90;999.90;;;13.20;93.30;;;;;;5056774;28;20093;-69
2023/06/15 08:23:24;;;;;;;1999.90;999.90;;;13.10;93.50;;;;;;5055447;28;20105;-69
2023/06/15 08:25:52;;;;;;;1999.90;999.90;;;13.00;93.70;;;;;;5059329;28;20482;-71
2023/06/15 08:28:20;;;;;;;1999.90;999.90;;;12.90;94.00;;;;;;5063526;28;20394;-68
2023/06/15 08:30:48;;;;;;;1999.90;999.90;;;12.70;94.20;;;;;;5054920;28;20021;-69
2023/06/15 08:33:18;;;;;;;1999.90;999.90;;;12.60;94.50;;;;;;5058056;28;20025;-68
2023/06/15 08:35:45;;;;;;;1999.90;999.90;;;12.50;94.70;;;;;;5054141;28;20736;-68
2023/06/15 08:38:13;;;;;;;1999.90;999.90;;;12.40;95.00;;;;;;5056287;28;20510;-68
2023/06/15 08:40:40;;;;;;;1999.90;999.90;;;12.40;95.00;;;;;;5051002;28;20042;-68
2023/06/15 08:43:08;;;;;;;1999.90;999.90;;;12.40;95.10;;;;;;5046832;28;20031;-69
2023/06/15 08:45:43;;;;;;;1999.90;999.90;;;12.40;95.00;;;;;;5057598;28;20118;-72
2023/06/15 08:48:16;;;;;;;1999.90;999.90;;;12.40;95.10;;;;;;5060823;28;20025;-68
2023/06/15 08:50:45;;;;;;;1999.90;999.90;;;12.30;95.40;;;;;;5048053;28;20033;-69
2023/06/15 08:53:14;;;;;;;1999.90;999.90;;;12.30;95.40;;;;;;5050446;28;20033;-74
2023/06/15 08:55:43;;;;;;;1999.90;999.90;;;12.20;95.40;;;;;;5051687;28;20037;-70
2023/06/15 08:58:10;;;;;;;1999.90;999.90;;;12.20;95.60;;;;;;5057946;28;20056;-71
2023/06/15 09:00:37;;;;;;;1999.90;999.90;;;12.20;95.70;;;;;;5051953;28;20055;-68
2023/06/15 09:03:09;;;;;;;1999.90;999.90;;;12.10;95.70;;;;;;5042952;28;20041;-72
2023/06/15 09:05:37;;;;;;;1999.90;999.90;;;12.00;95.80;;;;;;5048520;28;20139;-73
2023/06/15 09:08:05;;;;;;;1999.90;999.90;;;11.90;96.20;;;;;;5068529;28;20054;-76
2023/06/15 09:10:38;;;;;;;1999.90;999.90;;;11.90;96.40;;;;;;5057464;28;20040;-75
2023/06/15 09:13:05;;;;;;;1999.90;999.90;;;11.80;96.60;;;;;;5048065;28;20104;-71
2023/06/15 09:15:33;;;;;;;1999.90;999.90;;;11.70;96.80;;;;;;5040580;28;20376;-77
2023/06/15 09:18:03;;;;;;;1999.90;999.90;;;11.60;97.10;;;;;;5049936;28;20723;-68
2023/06/15 09:20:37;;;;;;;1999.90;999.90;;;11.50;97.20;;;;;;5038069;28;20476;-68
2023/06/15 09:23:05;;;;;;;1999.90;999.90;;;11.50;97.40;;;;;;5056236;28;20029;-68
2023/06/15 09:25:33;;;;;;;1999.90;999.90;;;11.50;97.50;;;;;;5052864;28;20033;-69
2023/06/15 09:28:02;;;;;;;1999.90;999.90;;;11.50;97.50;;;;;;5067209;28;20024;-67
2023/06/15 09:30:33;;;;;;;1999.90;999.90;;;11.50;97.60;;;;;;5048510;28;20454;-68
2023/06/15 09:33:20;;;;;;;1999.90;999.90;;;11.40;97.70;;;;;;5050778;28;20024;-68
2023/06/15 09:36:02;;;;;;;1999.90;999.90;;;11.40;97.70;;;;;;5047873;28;20090;-68
2023/06/15 09:38:53;;;;;;;1999.90;999.90;;;11.30;97.80;;;;;;5050024;28;20013;-68
2023/06/15 09:41:21;;;;;;;1999.90;999.90;;;11.40;98.10;;;;;;5055196;28;20043;-70
2023/06/15 09:43:48;;;;;;;1999.90;999.90;;;11.30;98.30;;;;;;5053462;28;20022;-68
2023/06/15 09:46:20;;;;;;;1999.90;999.90;;;11.30;98.30;;;;;;5045996;28;20483;-70
2023/06/15 09:48:49;;;;;;;1999.90;999.90;;;11.30;98.40;;;;;;5055786;28;20045;-68
2023/06/15 09:51:16;;;;;;;1999.90;999.90;;;11.30;98.50;;;;;;5051897;28;20039;-68
2023/06/15 09:53:44;;;;;;;1999.90;999.90;;;11.20;98.60;;;;;;5052019;28;20124;-69
2023/06/15 09:56:12;;;;;;;1999.90;999.90;;;11.10;98.60;;;;;;5055237;28;20021;-68
2023/06/15 09:58:39;;;;;;;1999.90;999.90;;;11.10;98.80;;;;;;5055772;28;20104;-69
2023/06/15 10:01:10;;;;;;;1999.90;999.90;;;11.00;98.90;;;;;;5054639;28;20028;-69
2023/06/15 10:03:43;;;;;;;1999.90;999.90;;;11.00;99.10;;;;;;5056149;28;20048;-68
2023/06/15 10:06:16;;;;;;;1999.90;999.90;;;10.90;99.30;;;;;;5052728;28;20064;-67
2023/06/15 10:08:51;;;;;;;1999.90;999.90;;;10.90;99.40;;;;;;5060701;28;20051;-68
2023/06/15 10:11:21;;;;;;;1999.90;999.90;;;11.00;99.40;;;;;;5052976;28;20041;-68
2023/06/15 10:14:02;;;;;;;1999.90;999.90;;;11.00;99.30;;;;;;5059139;28;20483;-69
2023/06/15 10:16:30;;;;;;;1999.90;999.90;;;11.00;99.30;;;;;;5057332;28;20025;-68
2023/06/15 10:19:05;;;;;;;1999.90;999.90;;;10.90;99.50;;;;;;5056513;28;20028;-67
2023/06/15 10:21:36;;;;;;;1999.90;999.90;;;10.80;99.80;;;;;;5051330;28;20033;-68
2023/06/15 10:24:10;;;;;;;1999.90;999.90;;;10.80;99.70;;;;;;5046517;28;20025;-68
2023/06/15 10:26:38;;;;;;;1999.90;999.90;;;10.80;99.80;;;;;;5051716;28;20036;-68
2023/06/15 10:29:21;;;;;;;1999.90;999.90;;;10.70;99.80;;;;;;5059260;28;20043;-67
2023/06/15 10:32:27;;;;;;;1999.90;999.90;;;10.70;99.90;;;;;;5054040;28;20206;-67
2023/06/15 10:35:49;;;;;;;1999.90;999.90;;;10.70;99.90;;;;;;5007350;28;20366;-68
2023/06/15 10:38:38;;;;;;;1999.90;999.90;;;10.70;99.90;;;;;;4995211;28;20037;-67
2023/06/15 10:41:06;;;;;;;1999.90;999.90;;;10.70;99.90;;;;;;5046819;28;20085;-67
2023/06/15 10:43:33;;;;;;;1999.90;999.90;;;10.70;99.90;;;;;;5055260;28;20116;-68
2023/06/15 10:46:06;;;;;;;1999.90;999.90;;;10.80;99.90;;;;;;5047611;28;20358;-68
2023/06/15 10:48:39;;;;;;;1999.90;999.90;;;10.80;99.90;;;;;;5053654;28;20102;-67
2023/06/15 10:51:08;;;;;;;1999.90;999.90;;;10.80;99.90;;;;;;5054360;28;20495;-68
2023/06/15 10:53:41;;;;;;;1999.90;999.90;;;10.90;99.90;;;;;;5058201;28;20028;-67
2023/06/15 10:56:17;;;;;;;1999.90;999.90;;;10.90;99.90;;;;;;5054586;28;20021;-68
2023/06/15 10:59:04;;;;;;;1999.90;999.90;;;10.80;99.90;;;;;;5053865;28;20021;-68
2023/06/15 11:01:33;;;;;;;1999.90;999.90;;;10.80;99.90;;;;;;5052266;28;20114;-68
2023/06/15 11:04:02;;;;;;;1999.90;999.90;;;10.70;99.90;;;;;;5054615;28;20025;-66
2023/06/15 11:06:33;;;;;;;1999.90;999.90;;;10.60;99.90;;;;;;5047519;28;20024;-68
2023/06/15 11:09:09;;;;;;;1999.90;999.90;;;10.60;99.90;;;;;;5049088;28;20151;-69
2023/06/15 11:11:38;;;;;;;1999.90;999.90;;;10.40;99.90;;;;;;5050322;28;20036;-68
2023/06/15 11:14:07;;;;;;;1999.90;999.90;;;10.20;99.90;;;;;;5044796;28;20025;-67
2023/06/15 11:16:38;;;;;;;1999.90;999.90;;;10.10;99.90;;;;;;5044939;28;20044;-67
2023/06/15 11:19:11;;;;;;;1999.90;999.90;;;9.90;99.90;;;;;;5049522;28;20031;-67
2023/06/15 11:21:48;;;;;;;1999.90;999.90;;;9.80;99.90;;;;;;5044460;28;20071;-67
2023/06/15 11:24:16;;;;;;;1999.90;999.90;;;9.70;99.90;;;;;;5057488;28;20018;-70
2023/06/15 11:26:48;;;;;;;1999.90;999.90;;;9.60;99.90;;;;;;5045003;28;20033;-69
2023/06/15 11:29:22;;;;;;;1999.90;999.90;;;9.50;99.90;;;;;;5050956;28;20118;-70
2023/06/15 11:32:02;;;;;;;1999.90;999.90;;;9.40;99.90;;;;;;5043387;28;20027;-68
2023/06/15 11:34:34;;;;;;;1999.90;999.90;;;9.40;99.90;;;;;;5057006;28;20033;-73
2023/06/15 11:37:05;;;;;;;1999.90;999.90;;;9.30;99.90;;;;;;5059841;28;20074;-70
2023/06/15 11:39:33;;;;;;;1999.90;999.90;;;9.20;99.90;;;;;;5057703;28;20040;-70
2023/06/15 11:42:00;;;;;;;1999.90;999.90;;;9.10;99.90;;;;;;5055361;28;20165;-69
2023/06/15 11:44:28;;;;;;;1999.90;999.90;;;9.10;99.90;;;;;;5056821;28;20070;-69
2023/06/15 11:46:57;;;;;;;1999.90;999.90;;;8.90;99.90;;;;;;5042838;28;20033;-68
2023/06/15 11:49:24;;;;;;;1999.90;999.90;;;8.90;99.90;;;;;;5054148;28;20041;-71
2023/06/15 11:51:53;;;;;;;1999.90;999.90;;;8.80;99.90;;;;;;5057342;28;20028;-69
2023/06/15 11:54:28;;;;;;;1999.90;999.90;;;8.70;99.90;;;;;;5052039;28;20418;-69
2023/06/15 11:57:00;;;;;;;1999.90;999.90;;;8.70;99.90;;;;;;5056272;28;20021;-68
2023/06/15 11:59:27;;;;;;;1999.90;999.90;;;8.60;99.90;;;;;;5055770;28;20047;-68
2023/06/15 12:02:03;;;;;;;1999.90;999.90;;;8.60;99.90;;;;;;5057666;28;20028;-69
2023/06/15 12:04:34;;;;;;;;;;;8.50;99.90;;;;;;5054674;28;20032;-68
2023/06/15 12:07:04;;;;;;;1999.90;999.90;;;8.40;99.90;;;;;;5052428;28;20005;-67
2023/06/15 12:09:32;;;;;;;1999.90;999.90;;;8.40;99.90;;;;;;5061684;28;20064;-68
2023/06/15 12:12:01;;;;;;;1999.90;999.90;;;8.40;99.90;;;;;;5045044;28;20104;-68